createdAt,value
2018-05-14T00:01:10.870Z,12.80
2018-05-14T00:03:39.109Z,12.80
2018-05-14T00:06:06.501Z,12.80
2018-05-14T00:08:34.710Z,12.90
2018-05-14T00:11:02.143Z,12.90
2018-05-14T00:13:29.582Z,12.80
2018-05-14T00:15:57.796Z,12.80
2018-05-14T00:18:25.239Z,12.80
2018-05-14T00:20:52.675Z,13.00
2018-05-14T00:23:20.890Z,12.90
2018-05-14T00:25:48.333Z,12.80
2018-05-14T00:28:15.794Z,12.80
2018-05-14T00:30:43.230Z,12.80
2018-05-14T00:33:10.657Z,12.90
2018-05-14T00:35:38.113Z,12.80
2018-05-14T00:38:05.561Z,12.80
2018-05-14T00:40:32.994Z,12.80
2018-05-14T00:43:00.456Z,12.90
2018-05-14T00:45:27.891Z,12.80
2018-05-14T00:47:55.342Z,12.80
2018-05-14T00:50:22.799Z,12.80
2018-05-14T00:52:50.250Z,12.80
2018-05-14T00:55:17.690Z,12.70
2018-05-14T00:57:45.145Z,12.90
2018-05-14T01:00:13.346Z,12.90
2018-05-14T01:02:40.802Z,12.90
2018-05-14T01:05:08.239Z,12.90
2018-05-14T01:07:35.669Z,12.90
2018-05-14T01:10:03.889Z,12.90
2018-05-14T01:12:31.326Z,12.90
2018-05-14T01:14:58.771Z,12.90
2018-05-14T01:17:26.977Z,12.90
2018-05-14T01:19:54.427Z,12.90
2018-05-14T01:22:21.876Z,13.00
2018-05-14T01:24:54.951Z,12.90
2018-05-14T01:27:22.386Z,13.10
2018-05-14T01:29:50.602Z,13.00
2018-05-14T01:32:18.050Z,12.90
2018-05-14T01:34:45.507Z,13.00
2018-05-14T01:37:12.938Z,13.00
2018-05-14T01:39:41.159Z,13.00
2018-05-14T01:42:08.597Z,13.00
2018-05-14T01:44:36.054Z,13.00
2018-05-14T01:47:03.497Z,12.90
2018-05-14T01:49:30.939Z,13.20
2018-05-14T01:51:58.377Z,13.10
2018-05-14T01:54:25.822Z,12.90
2018-05-14T01:56:53.254Z,12.90
2018-05-14T01:59:20.702Z,13.00
2018-05-14T02:01:48.141Z,12.90
2018-05-14T02:04:15.603Z,12.60
2018-05-14T02:06:43.047Z,12.90
2018-05-14T02:09:10.489Z,12.90
2018-05-14T02:11:37.931Z,12.90
2018-05-14T02:14:06.139Z,12.90
2018-05-14T02:16:33.591Z,12.90
2018-05-14T02:19:01.022Z,12.90
2018-05-14T02:21:28.462Z,12.90
2018-05-14T02:23:55.909Z,12.90
2018-05-14T02:26:23.357Z,13.00
2018-05-14T02:28:50.794Z,13.00
2018-05-14T02:31:18.248Z,12.90
2018-05-14T02:33:45.697Z,12.90
2018-05-14T02:36:13.152Z,12.90
2018-05-14T02:38:40.586Z,13.00
2018-05-14T02:41:08.039Z,13.00
2018-05-14T02:43:35.483Z,13.00
2018-05-14T02:46:03.686Z,12.90
2018-05-14T02:48:31.126Z,12.90
2018-05-14T02:50:58.575Z,12.90
2018-05-14T02:53:26.790Z,12.90
2018-05-14T02:55:54.240Z,12.90
2018-05-14T02:58:21.666Z,12.90
2018-05-14T03:00:49.871Z,13.00
2018-05-14T03:03:18.076Z,13.00
2018-05-14T03:05:45.519Z,13.00
2018-05-14T03:08:12.956Z,12.90
2018-05-14T03:10:40.412Z,12.90
2018-05-14T03:13:07.865Z,12.70
2018-05-14T03:15:35.322Z,12.90
2018-05-14T03:18:02.746Z,12.90
2018-05-14T03:20:30.970Z,12.90
2018-05-14T03:22:58.411Z,12.90
2018-05-14T03:25:25.865Z,12.90
2018-05-14T03:27:53.314Z,12.90
2018-05-14T03:30:20.751Z,12.90
2018-05-14T03:32:48.186Z,12.90
2018-05-14T03:35:15.636Z,13.00
2018-05-14T03:37:43.083Z,12.90
2018-05-14T03:40:10.919Z,15.30
2018-05-14T03:42:38.368Z,12.90
2018-05-14T03:45:05.807Z,12.90
2018-05-14T03:47:33.243Z,12.90
2018-05-14T03:50:01.452Z,12.90
2018-05-14T03:52:29.659Z,12.90
2018-05-14T03:54:57.146Z,12.90
2018-05-14T03:57:25.359Z,13.00
2018-05-14T04:00:04.607Z,13.00
2018-05-14T04:02:43.906Z,13.00
2018-05-14T04:05:19.011Z,13.00
2018-05-14T04:07:46.455Z,12.90
2018-05-14T04:10:13.906Z,12.90
2018-05-14T04:12:41.346Z,12.90
2018-05-14T04:15:08.786Z,12.90
2018-05-14T04:17:36.239Z,13.00
2018-05-14T04:20:03.668Z,12.90
2018-05-14T04:22:34.467Z,13.00
2018-05-14T04:25:01.911Z,13.00
2018-05-14T04:27:29.352Z,13.00
2018-05-14T04:29:56.789Z,13.00
2018-05-14T04:32:24.240Z,13.20
2018-05-14T04:34:51.678Z,13.00
2018-05-14T04:37:19.892Z,13.10
2018-05-14T04:39:47.325Z,13.10
2018-05-14T04:42:15.526Z,13.00
2018-05-14T04:44:42.966Z,13.00
2018-05-14T04:47:10.446Z,13.00
2018-05-14T04:49:37.886Z,13.00
2018-05-14T04:52:05.341Z,13.10
2018-05-14T04:54:33.546Z,13.00
2018-05-14T04:57:00.991Z,13.00
2018-05-14T04:59:28.458Z,13.00
2018-05-14T05:01:55.911Z,13.10
2018-05-14T05:04:23.351Z,13.00
2018-05-14T05:06:50.789Z,13.00
2018-05-14T05:09:18.223Z,12.90
2018-05-14T05:11:45.677Z,12.90
2018-05-14T05:14:13.887Z,12.90
2018-05-14T05:16:41.326Z,13.00
2018-05-14T05:19:08.775Z,13.00
2018-05-14T05:21:36.215Z,13.00
2018-05-14T05:24:04.973Z,12.90
2018-05-14T05:26:32.415Z,12.90
2018-05-14T05:28:59.850Z,12.90
2018-05-14T05:31:27.298Z,12.90
2018-05-14T05:33:54.734Z,13.10
2018-05-14T05:36:22.169Z,12.90
2018-05-14T05:38:49.610Z,12.90
2018-05-14T05:41:17.047Z,12.90
2018-05-14T05:43:44.500Z,13.00
2018-05-14T05:46:11.934Z,13.00
2018-05-14T05:48:39.376Z,13.00
2018-05-14T05:51:06.819Z,13.00
2018-05-14T05:53:35.040Z,13.10
2018-05-14T05:56:02.483Z,13.10
2018-05-14T05:58:29.937Z,13.00
2018-05-14T06:00:57.370Z,13.00
2018-05-14T06:03:24.820Z,13.00
2018-05-14T06:05:53.021Z,13.00
2018-05-14T06:08:20.819Z,13.00
2018-05-14T06:10:48.252Z,13.10
2018-05-14T06:13:15.708Z,13.10
2018-05-14T06:15:43.158Z,13.40
2018-05-14T06:18:10.614Z,13.00
2018-05-14T06:20:38.071Z,13.00
2018-05-14T06:23:05.519Z,13.00
2018-05-14T06:25:32.976Z,13.50
2018-05-14T06:28:00.425Z,13.00
2018-05-14T06:30:27.863Z,13.00
2018-05-14T06:32:55.303Z,13.00
2018-05-14T06:35:22.745Z,13.10
2018-05-14T06:37:50.195Z,13.00
2018-05-14T06:40:17.657Z,13.00
2018-05-14T06:42:45.106Z,13.10
2018-05-14T06:45:12.538Z,13.10
2018-05-14T06:47:39.990Z,13.20
2018-05-14T06:50:07.437Z,13.20
2018-05-14T06:52:34.886Z,13.00
2018-05-14T06:55:02.324Z,13.20
2018-05-14T06:57:30.539Z,13.20
2018-05-14T06:59:57.986Z,13.30
2018-05-14T07:02:26.186Z,13.20
2018-05-14T07:04:53.638Z,13.00
2018-05-14T07:07:21.082Z,13.20
2018-05-14T07:09:48.530Z,13.10
2018-05-14T07:12:16.206Z,13.10
2018-05-14T07:14:43.427Z,13.10
2018-05-14T07:17:10.875Z,13.10
2018-05-14T07:19:38.320Z,13.10
2018-05-14T07:22:06.528Z,13.00
2018-05-14T07:24:33.982Z,13.00
2018-05-14T07:27:01.458Z,13.00
2018-05-14T07:29:28.894Z,12.80
2018-05-14T07:31:56.326Z,13.00
2018-05-14T07:34:23.770Z,12.90
2018-05-14T07:36:51.975Z,13.00
2018-05-14T07:39:19.482Z,13.00
2018-05-14T07:41:47.616Z,13.10
2018-05-14T07:44:15.066Z,13.10
2018-05-14T07:46:42.512Z,13.20
2018-05-14T07:49:10.054Z,13.10
2018-05-14T07:51:37.394Z,13.20
2018-05-14T07:54:05.613Z,13.10
2018-05-14T07:56:33.068Z,13.30
2018-05-14T07:59:00.527Z,13.10
2018-05-14T08:01:27.972Z,13.10
2018-05-14T08:03:55.418Z,13.20
2018-05-14T08:06:22.856Z,13.40
2018-05-14T08:08:51.070Z,13.30
2018-05-14T08:11:18.519Z,13.30
2018-05-14T08:13:45.975Z,13.30
2018-05-14T08:16:13.411Z,13.40
2018-05-14T08:18:40.865Z,13.60
2018-05-14T08:21:08.311Z,13.50
2018-05-14T08:23:36.625Z,13.70
2018-05-14T08:26:03.975Z,13.60
2018-05-14T08:28:31.425Z,13.60
2018-05-14T08:30:58.854Z,13.60
2018-05-14T08:33:27.071Z,13.90
2018-05-14T08:35:54.519Z,13.90
2018-05-14T08:38:23.093Z,14.00
2018-05-14T08:40:50.935Z,14.00
2018-05-14T08:43:18.374Z,13.90
2018-05-14T08:45:45.830Z,13.50
2018-05-14T08:48:13.263Z,13.50
2018-05-14T08:50:40.710Z,13.60
2018-05-14T08:53:08.146Z,13.70
2018-05-14T08:55:36.354Z,13.90
2018-05-14T08:58:03.796Z,14.10
2018-05-14T09:00:31.240Z,14.00
2018-05-14T09:02:58.680Z,13.80
2018-05-14T09:05:26.122Z,13.70
2018-05-14T09:07:53.550Z,13.90
2018-05-14T09:10:20.995Z,13.90
2018-05-14T09:12:48.443Z,14.00
2018-05-14T09:15:15.886Z,14.60
2018-05-14T09:17:43.327Z,14.10
2018-05-14T09:20:10.783Z,13.30
2018-05-14T09:22:38.219Z,14.00
2018-05-14T09:25:05.664Z,13.90
2018-05-14T09:27:33.500Z,13.80
2018-05-14T09:30:01.347Z,13.90
2018-05-14T09:32:28.795Z,13.20
2018-05-14T09:34:56.242Z,14.20
2018-05-14T09:37:23.680Z,13.90
2018-05-14T09:39:51.522Z,13.60
2018-05-14T09:42:19.731Z,14.00
2018-05-14T09:44:47.182Z,14.20
2018-05-14T09:47:14.630Z,13.80
2018-05-14T09:49:42.842Z,14.20
2018-05-14T09:52:10.280Z,14.30
2018-05-14T09:54:37.726Z,14.30
2018-05-14T09:57:05.188Z,14.30
2018-05-14T09:59:32.622Z,13.70
2018-05-14T10:02:00.068Z,14.20
2018-05-14T10:04:27.898Z,14.30
2018-05-14T10:06:55.346Z,14.50
2018-05-14T10:09:23.550Z,14.40
2018-05-14T10:11:51.763Z,14.40
2018-05-14T10:14:19.198Z,14.50
2018-05-14T10:16:46.638Z,14.00
2018-05-14T10:19:14.849Z,14.50
2018-05-14T10:21:42.304Z,14.50
2018-05-14T10:24:10.130Z,14.10
2018-05-14T10:26:38.333Z,14.50
2018-05-14T10:29:05.766Z,14.40
2018-05-14T10:31:33.977Z,14.60
2018-05-14T10:34:01.815Z,15.50
2018-05-14T10:36:29.251Z,14.50
2018-05-14T10:38:57.451Z,14.70
2018-05-14T10:41:24.894Z,14.90
2018-05-14T10:43:53.099Z,14.80
2018-05-14T10:46:20.944Z,15.00
2018-05-14T10:48:48.365Z,15.00
2018-05-14T10:51:15.806Z,15.10
2018-05-14T10:53:43.252Z,15.20
2018-05-14T10:56:10.689Z,15.00
2018-05-14T10:58:38.143Z,14.90
2018-05-14T11:01:05.583Z,14.90
2018-05-14T11:03:33.019Z,15.20
2018-05-14T11:06:01.627Z,15.30
2018-05-14T11:08:29.047Z,14.80
2018-05-14T11:10:56.486Z,15.00
2018-05-14T11:13:23.927Z,15.40
2018-05-14T11:15:52.134Z,15.30
2018-05-14T11:18:19.571Z,15.30
2018-05-14T11:20:47.022Z,15.20
2018-05-14T11:23:14.459Z,15.10
2018-05-14T11:25:41.926Z,15.40
2018-05-14T11:28:09.364Z,15.20
2018-05-14T11:30:36.805Z,14.70
2018-05-14T11:33:04.243Z,14.70
2018-05-14T11:35:31.710Z,15.70
2018-05-14T11:37:59.122Z,15.20
2018-05-14T11:40:26.559Z,15.10
2018-05-14T11:42:54.011Z,15.30
2018-05-14T11:45:22.211Z,14.90
2018-05-14T11:47:49.656Z,14.90
2018-05-14T11:50:17.168Z,15.00
2018-05-14T11:52:44.533Z,15.00
2018-05-14T11:55:11.969Z,15.10
2018-05-14T11:57:40.175Z,15.00
2018-05-14T12:00:08.003Z,15.00
2018-05-14T12:02:36.206Z,15.10
2018-05-14T12:05:03.647Z,15.50
2018-05-14T12:07:31.091Z,15.20
2018-05-14T12:09:59.299Z,15.20
2018-05-14T12:12:26.748Z,15.50
2018-05-14T12:14:54.205Z,14.80
2018-05-14T12:17:21.643Z,15.50
2018-05-14T12:19:49.091Z,15.10
2018-05-14T12:22:17.294Z,15.20
2018-05-14T12:24:44.731Z,15.20
2018-05-14T12:27:12.171Z,15.50
2018-05-14T12:29:40.364Z,15.40
2018-05-14T12:32:07.848Z,15.40
2018-05-14T12:34:35.243Z,15.80
2018-05-14T12:37:02.682Z,15.80
2018-05-14T12:39:30.511Z,15.70
2018-05-14T12:41:57.954Z,15.60
2018-05-14T12:44:25.387Z,15.90
2018-05-14T12:46:53.593Z,15.80
2018-05-14T12:49:21.039Z,15.60
2018-05-14T12:51:48.505Z,15.90
2018-05-14T12:54:15.911Z,16.00
2018-05-14T12:56:43.353Z,16.10
2018-05-14T12:59:10.796Z,15.90
2018-05-14T13:01:38.243Z,16.10
2018-05-14T13:04:06.451Z,15.80
2018-05-14T13:06:33.891Z,15.80
2018-05-14T13:09:02.109Z,15.80
2018-05-14T13:11:30.371Z,15.70
2018-05-14T13:13:57.746Z,15.80
2018-05-14T13:16:25.195Z,15.30
2018-05-14T13:18:53.058Z,15.50
2018-05-14T13:21:20.467Z,15.70
2018-05-14T13:23:48.307Z,15.40
2018-05-14T13:26:15.755Z,15.10
2018-05-14T13:28:43.196Z,15.40
2018-05-14T13:31:10.634Z,15.60
2018-05-14T13:33:38.851Z,15.40
2018-05-14T13:36:06.290Z,15.50
2018-05-14T13:38:33.730Z,15.30
2018-05-14T13:41:01.937Z,15.60
2018-05-14T13:43:29.385Z,15.90
2018-05-14T13:45:56.816Z,15.50
2018-05-14T13:48:24.259Z,16.30
2018-05-14T13:50:52.492Z,15.80
2018-05-14T13:53:20.307Z,16.20
2018-05-14T13:55:48.139Z,15.50
2018-05-14T13:58:15.584Z,15.70
2018-05-14T14:00:43.795Z,16.00
2018-05-14T14:03:11.294Z,15.60
2018-05-14T14:05:38.747Z,16.00
2018-05-14T14:08:06.191Z,15.80
2018-05-14T14:10:33.630Z,16.20
2018-05-14T14:13:01.849Z,16.00
2018-05-14T14:15:29.296Z,16.30
2018-05-14T14:17:56.743Z,17.00
2018-05-14T14:20:24.176Z,15.70
2018-05-14T14:22:52.395Z,16.10
2018-05-14T14:25:19.839Z,16.40
2018-05-14T14:27:47.287Z,16.20
2018-05-14T14:30:14.719Z,16.10
2018-05-14T14:32:42.928Z,16.30
2018-05-14T14:35:10.762Z,16.40
2018-05-14T14:37:38.599Z,16.20
2018-05-14T14:40:06.426Z,16.80
2018-05-14T14:42:35.011Z,16.20
2018-05-14T14:45:02.459Z,16.60
2018-05-14T14:47:31.026Z,16.30
2018-05-14T14:49:58.462Z,16.40
2018-05-14T14:52:26.670Z,16.20
2018-05-14T14:54:54.127Z,16.20
2018-05-14T14:57:21.558Z,16.20
2018-05-14T14:59:49.399Z,16.20
2018-05-14T15:02:16.835Z,16.10
2018-05-14T15:04:44.279Z,16.20
2018-05-14T15:07:11.722Z,16.30
2018-05-14T15:09:39.568Z,15.90
2018-05-14T15:12:07.004Z,15.90
2018-05-14T15:14:35.234Z,15.80
2018-05-14T15:17:03.059Z,15.90
2018-05-14T15:19:30.499Z,15.30
2018-05-14T15:21:58.707Z,15.70
2018-05-14T15:24:26.166Z,16.10
2018-05-14T15:26:54.004Z,15.70
2018-05-14T15:29:21.847Z,15.90
2018-05-14T15:31:49.678Z,15.80
2018-05-14T15:34:17.132Z,15.70
2018-05-14T15:36:44.570Z,15.90
2018-05-14T15:39:12.021Z,15.90
2018-05-14T15:41:39.452Z,16.10
2018-05-14T15:44:07.683Z,15.50
2018-05-14T15:46:35.522Z,15.60
2018-05-14T15:49:02.975Z,16.00
2018-05-14T15:51:30.417Z,15.70
2018-05-14T15:53:57.866Z,15.40
2018-05-14T15:56:25.396Z,15.10
2018-05-14T15:58:53.519Z,15.30
2018-05-14T16:01:21.724Z,15.30
2018-05-14T16:03:50.683Z,15.30
2018-05-14T16:06:18.125Z,14.80
2018-05-14T16:08:45.611Z,14.90
2018-05-14T16:11:13.438Z,15.20
2018-05-14T16:13:41.282Z,15.10
2018-05-14T16:16:08.731Z,14.70
2018-05-14T16:18:36.171Z,14.80
2018-05-14T16:21:04.019Z,15.30
2018-05-14T16:23:31.462Z,14.60
2018-05-14T16:25:58.902Z,15.30
2018-05-14T16:28:26.355Z,15.40
2018-05-14T16:30:54.197Z,14.80
2018-05-14T16:33:21.699Z,14.80
2018-05-14T16:35:49.082Z,15.50
2018-05-14T16:38:16.538Z,15.30
2018-05-14T16:40:43.986Z,14.80
2018-05-14T16:43:11.435Z,15.10
2018-05-14T16:45:39.650Z,15.10
2018-05-14T16:48:07.867Z,15.20
2018-05-14T16:50:36.093Z,15.20
2018-05-14T16:53:03.643Z,14.90
2018-05-14T16:55:31.217Z,15.20
2018-05-14T16:57:59.587Z,15.30
2018-05-14T17:00:27.025Z,14.90
2018-05-14T17:02:55.350Z,15.30
2018-05-14T17:05:23.583Z,15.20
2018-05-14T17:07:51.040Z,15.60
2018-05-14T17:10:19.263Z,15.30
2018-05-14T17:12:46.695Z,15.40
2018-05-14T17:15:15.278Z,15.30
2018-05-14T17:17:43.491Z,15.30
2018-05-14T17:20:11.715Z,15.40
2018-05-14T17:22:39.554Z,15.40
2018-05-14T17:25:07.057Z,15.30
2018-05-14T17:27:34.886Z,15.30
2018-05-14T17:30:02.563Z,15.50
2018-05-14T17:32:30.427Z,15.60
2018-05-14T17:34:57.869Z,15.00
2018-05-14T17:37:25.313Z,14.90
2018-05-14T17:39:53.159Z,15.40
2018-05-14T17:42:20.616Z,15.50
2018-05-14T17:44:48.505Z,15.50
2018-05-14T17:47:16.386Z,15.40
2018-05-14T17:49:48.327Z,15.10
2018-05-14T17:52:15.783Z,15.40
2018-05-14T17:54:43.634Z,15.30
2018-05-14T17:57:11.087Z,15.60
2018-05-14T17:59:38.547Z,15.40
2018-05-14T18:02:06.011Z,15.40
2018-05-14T18:04:34.211Z,15.20
2018-05-14T18:07:01.663Z,15.50
2018-05-14T18:09:29.107Z,15.30
2018-05-14T18:11:56.555Z,15.70
2018-05-14T18:14:24.002Z,15.20
2018-05-14T18:16:51.455Z,15.30
2018-05-14T18:19:19.666Z,15.20
2018-05-14T18:21:48.015Z,15.50
2018-05-14T18:24:15.475Z,15.30
2018-05-14T18:26:48.655Z,15.10
2018-05-14T18:29:22.862Z,15.20
2018-05-14T18:31:56.030Z,15.20
2018-05-14T18:34:30.139Z,15.20
2018-05-14T18:39:29.806Z,15.10
2018-05-14T18:41:57.413Z,15.60
2018-05-14T18:44:31.395Z,15.00
2018-05-14T18:46:58.993Z,15.40
2018-05-14T18:49:26.540Z,14.80
2018-05-14T18:51:54.157Z,14.60
2018-05-14T18:54:21.562Z,15.00
2018-05-14T18:56:50.621Z,14.60
2018-05-14T18:59:18.949Z,14.90
2018-05-14T19:01:47.257Z,15.00
2018-05-14T19:04:14.781Z,15.00
2018-05-14T19:06:43.249Z,15.00
2018-05-14T19:09:11.205Z,15.00
2018-05-14T19:11:44.529Z,14.70
2018-05-14T19:14:12.775Z,15.00
2018-05-14T19:16:46.259Z,15.00
2018-05-14T19:19:13.753Z,15.00
2018-05-14T19:21:42.039Z,15.00
2018-05-14T19:24:09.590Z,15.10
2018-05-14T19:26:37.123Z,15.10
2018-05-14T19:29:10.681Z,15.10
2018-05-14T19:34:12.695Z,15.40
2018-05-14T19:36:41.212Z,15.00
2018-05-14T19:39:08.707Z,15.20
2018-05-14T19:41:36.357Z,15.40
2018-05-14T19:44:05.225Z,14.80
2018-05-14T19:46:32.867Z,14.70
2018-05-14T19:49:00.613Z,15.00
2018-05-14T19:51:28.095Z,14.80
2018-05-14T19:53:55.585Z,14.70
2018-05-14T19:56:23.835Z,15.10
2018-05-14T19:58:51.340Z,15.30
2018-05-14T20:01:19.551Z,15.00
2018-05-14T20:03:47.848Z,15.10
2018-05-14T20:06:15.710Z,15.00
2018-05-14T20:08:43.256Z,15.00
2018-05-14T20:11:11.546Z,15.00
2018-05-14T20:13:39.076Z,14.90
2018-05-14T20:16:06.952Z,14.90
2018-05-14T20:18:35.248Z,15.00
2018-05-14T20:21:03.151Z,14.70
2018-05-14T20:23:30.692Z,14.70
2018-05-14T20:25:58.975Z,14.90
2018-05-14T20:28:26.468Z,14.90
2018-05-14T20:30:53.991Z,14.90
2018-05-14T20:33:21.567Z,14.90
2018-05-14T20:35:49.447Z,14.90
2018-05-14T20:38:16.984Z,14.90
2018-05-14T20:40:44.503Z,14.90
2018-05-14T20:43:12.047Z,15.30
2018-05-14T20:45:39.548Z,14.90
2018-05-14T20:48:08.208Z,14.70
2018-05-14T20:50:36.443Z,14.80
2018-05-14T20:53:03.991Z,15.00
2018-05-14T20:55:31.923Z,14.80
2018-05-14T20:57:59.448Z,14.90
2018-05-14T21:00:27.295Z,14.70
2018-05-14T21:02:54.768Z,14.70
2018-05-14T21:05:23.036Z,14.60
2018-05-14T21:07:57.636Z,14.60
2018-05-14T21:10:25.118Z,14.40
2018-05-14T21:12:53.335Z,14.60
2018-05-14T21:15:20.819Z,15.40
2018-05-14T21:17:48.709Z,14.50
2018-05-14T21:20:16.952Z,14.50
2018-05-14T21:22:44.499Z,14.30
2018-05-14T21:25:12.444Z,14.20
2018-05-14T21:27:40.371Z,14.60
2018-05-14T21:30:07.911Z,14.70
2018-05-14T21:32:35.867Z,14.50
2018-05-14T21:35:03.791Z,14.60
2018-05-14T21:37:31.428Z,14.40
2018-05-14T21:39:58.873Z,14.20
2018-05-14T21:42:27.187Z,14.60
2018-05-14T21:44:54.739Z,14.60
2018-05-14T21:47:22.313Z,14.90
2018-05-14T21:49:49.833Z,14.30
2018-05-14T21:52:17.344Z,14.60
2018-05-14T21:54:44.875Z,14.60
2018-05-14T21:57:13.158Z,14.40
2018-05-14T21:59:41.039Z,14.40
2018-05-14T22:02:08.572Z,14.40
2018-05-14T22:04:36.511Z,14.40
2018-05-14T22:07:04.044Z,14.30
2018-05-14T22:09:32.524Z,14.50
2018-05-14T22:12:00.016Z,14.60
2018-05-14T22:14:27.532Z,14.50
2018-05-14T22:16:56.172Z,14.30
2018-05-14T22:19:24.053Z,14.20
2018-05-14T22:21:52.304Z,14.30
2018-05-14T22:24:20.611Z,14.30
2018-05-14T22:26:48.500Z,14.30
2018-05-14T22:29:16.184Z,14.20
2018-05-14T22:31:44.589Z,14.30
2018-05-14T22:34:14.070Z,14.20
2018-05-14T22:36:41.654Z,14.50
2018-05-14T22:39:09.558Z,14.20
2018-05-14T22:41:37.938Z,14.20
2018-05-14T22:44:10.548Z,14.40
2018-05-14T22:46:38.403Z,13.80
2018-05-14T22:49:06.500Z,14.10
2018-05-14T22:51:34.177Z,14.00
2018-05-14T22:54:01.828Z,14.30
2018-05-14T22:56:30.222Z,14.10
2018-05-14T22:58:57.871Z,14.30
2018-05-14T23:01:25.440Z,14.20
2018-05-14T23:03:52.962Z,13.80
2018-05-14T23:06:21.241Z,14.10
2018-05-14T23:08:48.740Z,13.80
2018-05-14T23:11:17.000Z,14.10
2018-05-14T23:13:44.517Z,15.00
2018-05-14T23:16:11.999Z,14.20
2018-05-14T23:18:39.475Z,13.90
2018-05-14T23:21:07.423Z,14.00
2018-05-14T23:23:34.928Z,14.50
2018-05-14T23:26:02.462Z,14.00
2018-05-14T23:28:30.772Z,14.00
2018-05-14T23:30:58.647Z,14.00
2018-05-14T23:33:26.175Z,14.60
2018-05-14T23:35:54.464Z,13.90
2018-05-14T23:38:21.956Z,14.10
2018-05-14T23:40:49.504Z,13.90
2018-05-14T23:43:17.009Z,13.40
2018-05-14T23:45:45.322Z,13.80
2018-05-14T23:48:12.855Z,13.80
2018-05-14T23:50:40.396Z,14.10
2018-05-14T23:53:07.931Z,13.90
2018-05-14T23:55:35.416Z,14.10
2018-05-14T23:58:04.469Z,13.80
